Puigcerda, Spain
Current Conditions -  °F | °C
As of 8:30 PM on Tuesday 21 Oct 2014 (Local Time) from LFMP Reporting Station
Scattered Clouds Scattered Clouds  
Wind Chill: 73°   Ceiling: Unl
Heat Index: 73°   Visibility: 6mi
Dew Point: 55°   Wind: 22mph
Humidity: 53%   Direction: 310°NW
Pressure: 30.12"   Gusts: NA
Location:  42.43°N, 1.93°E
Report Text: LFMP 211830Z AUTO 31019KT 9999 SCT052 23/13 Q1020
Loading
Personal Weather Stations






























Interactive Weather Map
Tropical Storm Tracking
New forecast layout! Learn more

10-Day Weather Forecast

Advertisements
Track Severe Weather on mobile